Monday, September 24, 2018, 5:41 PM EDT
Back to Local

KESN, Easton / Newman Field

Location: Easton, MD, United States Lat: 38.8
Local Time: 5:41 PM EDT (21:41 GMT) Lon: -76.067
Time Zone: US/Eastern Elev: 72 ft

Show me the last for .
Show Decoded

2018-09-24 16:50 METAR KESN 242050Z 09008KT 5SM BR SCT004 BKN018 19/18 A3036 =
2018-09-24 15:50 METAR KESN 241950Z 08010G14KT 10SM BKN020 20/17 A3036 =
2018-09-24 14:50 METAR KESN 241850Z 08013KT 10SM OVC016 19/17 A3037 =
2018-09-24 13:45 METAR KESN 241745Z 08009G16KT 10SM BKN020 19/17 A3038 =
2018-09-24 12:45 METAR KESN 241645Z 08009G15KT 7SM -RA OVC015 19/18 A3039 =
2018-09-24 11:50 METAR KESN 241550Z 08009G15KT 7SM -RA BKN013 OVC020 19/18 A3039 =
2018-09-24 10:45 METAR KESN 241445Z 08012G18KT 7SM BKN008 OVC013 19/18 A3039 =
2018-09-24 09:50 METAR KESN 241350Z 08008G14KT 7SM -RA BKN010 OVC014 19/18 A3038 =
2018-09-24 08:50 METAR KESN 241250Z 09006KT 5SM -RA BKN008 OVC013 19/18 A3036 =
2018-09-24 07:45 METAR KESN 241145Z 07006KT 2 1/2SM DZ OVC006 18/18 A3033 =
2018-09-24 06:50 METAR KESN 241050Z 07009KT 4SM RA OVC009 18/17 A3032 =
2018-09-24 05:50 METAR KESN 240950Z 06009KT 5SM RA OVC007 18/17 A3030 =
2018-09-23 21:50 METAR KESN 240150Z 04007KT 5SM RA SCT005 OVC010 17/17 A3026 =
2018-09-23 20:50 METAR KESN 240050Z 07010KT 5SM -RA OVC011 17/16 A3025 =
2018-09-23 19:50 METAR KESN 232350Z 05007KT 5SM -RA OVC010 17/16 A3023 =
2018-09-23 18:50 METAR KESN 232250Z 07008KT 2 1/2SM DZ BKN007 OVC012 17/17 A3023 =
2018-09-23 17:45 METAR KESN 232145Z 07009KT 1 1/2SM DZ OVC006 18/17 A3022 =

Support USWX by starting your Amazon purchase here.